McCarran International Airport
KLAS : now visible

Airfield :











YOU CAN JOIN US ON...

 
LOGIN :

Register | Disclaimer

   EN    FR    IT 

 









Legend :    VFR   Marginal VFR   IFR   Intensive IFR   Very Intensive IFR
Visi :
Ceiling :
>= 8 km
>= 3000ft
5 to 8 km
1000 to 3000 ft
1500m to 5 km
500 to 1000 ft
800 to 1500m
200 to 500 ft
< 800m
< 200 ft
Symbols :   Thunderstorms  Fog  Heavy snow  Heavy precipitations  Wind > 20 kt







- Airport Elevation : 2181 ft
- IATA code : LAS


KLAS - McCarran International

CURRENT METAR :
  • 190956Z 22004KT 10SM FEW250 27/M03 A2985 RMK AO2 SLP079 T02721033 $

EXPIRED METARs :
  • 190856Z 22006KT 10SM FEW250 28/M04 A2985 RMK AO2 SLP076 T02781044 55000 $
  • 190756Z 20004KT 10SM FEW250 28/M04 A2985 RMK AO2 SLP076 T02831044 404000256 $

TAF KLAS
Valid from the 19 at 09:00 until the 20 at 12:00 UTC


190835Z 1909/2012 19007KT P6SM SCT250
FM191500 15008KT P6SM SCT250
FM192200 19010G20KT P6SM SCT250
FM200300 20008KT P6SM SCT250
No reported NOTAMs for that airfield.



MET'MAP, your aeronautical weather chart ! - Copyright ORBIFLY December 2007 - Disclaimer

ORBIFLY MET'MAP TEAM :

Programming & Development : Alexandra Zaïnal
Concept & Development : Baudouin d'Aumeries
Co-Development & Prog : Marc-Olivier Méhu
Technical & hardware support : Manuel Goepfert

Contact : metmap@orbifly.com




SOURCES & CREDITS :

   NOAA       Earth
Advisory